New Port Richey, Florida
Current Conditions -  °F | °C
As of 6:35 PM on Wednesday 22 Oct 2014 (Local Time) from KCLW Reporting Station
Clear Clear  
Wind Chill: 73°   Ceiling: Unl
Heat Index: 73°   Visibility: 10mi
Dew Point: 63°   Wind: 6mph
Humidity: 69%   Direction: 350°N
Pressure: 29.93"   Gusts: NA
Location:  28.25°N, 82.72°W
Report Text: KCLW 222235Z AUTO 35005KT 10SM CLR 23/17 A2993 RMK AO2
Loading
Personal Weather Stations






























Interactive Weather Map New forecast layout! Learn more

10-Day Weather Forecast

Advertisements
Track Severe Weather on mobile